Terminal Aerodrome Forecast
Issued by NWS Twin Cities, MN

Home | Current Version | Previous Version | Graphics & Text | Print | Product List | Glossary On
Versions: 1 2 3 4 5 6 7 8 9 10 11 12 13 14 15 16 17 18
000
FTUS43 KMPX 170900 CCA
TAFSTC
TAF COR
KSTC 171000Z 1710/1806 35010KT P6SM BKN017
      TEMPO 1710/1711 SCT017
     FM171600 33009KT P6SM BKN025
     FM172200 33005KT P6SM SCT040
     FM180000 VRB02KT P6SM SCT250=

USA.gov is the U.S. government's official web portal to all federal, state and local government web resources and services.